Time;durP1;ratioP1;P1;durP2;ratioP2;P2;SDS_P1;SDS_P2;PMS_P1;PMS_P2;Temp;Humidity;BMP_temperature;BMP_pressure;BME280_temperature;BME280_humidity;BME280_pressure;Samples;Min_cycle;Max_cycle;Signal;HPM_P1;HPM_P2
2022/08/27 00:02:04;;;;;;;;;;;;;;;;;;5044629;28;1598;-74
2022/08/27 00:04:29;;;;;;;;;;;;;;;;;;5046882;28;1662;-74
2022/08/27 00:06:54;;;;;;;;;;;;;;;;;;5041167;28;1897;-74
2022/08/27 00:09:20;;;;;;;;;;;;;;;;;;5041909;28;1108;-74
2022/08/27 00:11:45;;;;;;;;;;;;;;;;;;5042203;28;869;-73
2022/08/27 00:14:10;;;;;;;;;;;;;;;;;;5040953;28;1546;-73
2022/08/27 00:16:35;;;;;;;;;;;;;;;;;;5042631;28;1298;-72
2022/08/27 00:19:01;;;;;;;;;;;;;;;;;;5049013;28;1566;-73
2022/08/27 00:21:26;;;;;;;;;;;;;;;;;;5032700;28;1150;-72
2022/08/27 00:23:52;;;;;;;;;;;;;;;;;;5041986;28;965;-72
2022/08/27 00:26:17;;;;;;;;;;;;;;;;;;5041342;28;1219;-72
2022/08/27 00:28:43;;;;;;;;;;;;;;;;;;5046983;28;1894;-72
2022/08/27 00:31:08;;;;;;;;;;;;;;;;;;5042681;28;1237;-73
2022/08/27 00:33:34;;;;;;;;;;;;;;;;;;5040341;28;1629;-72
2022/08/27 00:35:59;;;;;;;;;;;;;;;;;;5041305;28;1267;-72
2022/08/27 00:38:24;;;;;;;;;;;;;;;;;;5041508;28;1139;-72
2022/08/27 00:40:51;;;;;;;;;;;;;;;;;;5041649;28;837;-72
2022/08/27 00:43:21;;;;;;;;;;;;;;;;;;5041496;28;815;-72
2022/08/27 00:45:46;;;;;;;;;;;;;;;;;;5040032;28;1483;-72
2022/08/27 00:48:14;;;;;;;;;;;;;;;;;;5044229;28;1890;-73
2022/08/27 00:50:40;;;;;;;;;;;;;;;;;;5041276;28;1144;-73
2022/08/27 00:53:16;;;;;;;;;;;;;;;;;;5041654;28;818;-73
2022/08/27 00:55:44;;;;;;;;;;;;;;;;;;5044495;28;1554;-73
2022/08/27 00:58:32;;;;;;;;;;;;;;;;;;5043193;28;1091;-73
2022/08/27 01:00:58;;;;;;;;;;;;;;;;;;5046305;28;1525;-72
2022/08/27 01:03:25;;;;;;;;;;;;;;;;;;5033329;28;1613;-72
2022/08/27 01:05:51;;;;;;;;;;;;;;;;;;5040980;28;1330;-72
2022/08/27 01:08:19;;;;;;;;;;;;;;;;;;5041046;28;1956;-72
2022/08/27 01:10:45;;;;;;;;;;;;;;;;;;5040162;28;1524;-72
2022/08/27 01:13:11;;;;;;;;;;;;;;;;;;5032161;28;1240;-71
2022/08/27 01:15:38;;;;;;;;;;;;;;;;;;5043798;28;1664;-71
2022/08/27 01:18:04;;;;;;;;;;;;;;;;;;5047001;28;1664;-71
2022/08/27 01:20:34;;;;;;;;;;;;;;;;;;5039916;28;2246;-72
2022/08/27 01:22:59;;;;;;;;;;;;;;;;;;5041106;28;1175;-71
2022/08/27 01:25:25;;;;;;;;;;;;;;;;;;5040203;28;1609;-72
2022/08/27 01:27:51;;;;;;;;;;;;;;;;;;5039990;28;1894;-72
2022/08/27 01:30:18;;;;;;;;;;;;;;;;;;5041232;28;1285;-71
2022/08/27 01:32:44;;;;;;;;;;;;;;;;;;5046078;28;1269;-72
2022/08/27 01:35:10;;;;;;;;;;;;;;;;;;5037612;28;1804;-71
2022/08/27 01:37:35;;;;;;;;;;;;;;;;;;5040933;28;1164;-71
2022/08/27 01:40:01;;;;;;;;;;;;;;;;;;5040801;28;938;-71
2022/08/27 01:42:37;;;;;;;;;;;;;;;;;;5040745;28;1140;-72
2022/08/27 01:45:07;;;;;;;;;;;;;;;;;;5040224;28;1511;-72
2022/08/27 01:47:33;;;;;;;;;;;;;;;;;;5040094;28;1953;-71
2022/08/27 01:49:58;;;;;;;;;;;;;;;;;;5039673;28;1343;-72
2022/08/27 01:52:25;;;;;;;;;;;;;;;;;;5032478;28;1006;-71
2022/08/27 01:54:50;;;;;;;;;;;;;;;;;;5040669;28;1468;-72
2022/08/27 01:57:16;;;;;;;;;;;;;;;;;;5044115;28;1235;-71
2022/08/27 01:59:41;;;;;;;;;;;;;;;;;;5044039;28;922;-72
2022/08/27 02:02:07;;;;;;;;;;;;;;;;;;5047915;28;1504;-71
2022/08/27 02:04:32;;;;;;;;;;;;;;;;;;5045840;28;1349;-72
2022/08/27 02:06:57;;;;;;;;;;;;;;;;;;5043687;28;1952;-72
2022/08/27 02:09:23;;;;;;;;;;;;;;;;;;5044762;28;1416;-71
2022/08/27 02:11:48;;;;;;;;;;;;;;;;;;5043750;28;1088;-71
2022/08/27 02:14:14;;;;;;;;;;;;;;;;;;5043786;28;1064;-71
2022/08/27 02:16:40;;;;;;;;;;;;;;;;;;5049087;28;1630;-72
2022/08/27 02:19:06;;;;;;;;;;;;;;;;;;5042496;28;1562;-73
2022/08/27 02:21:31;;;;;;;;;;;;;;;;;;5043588;28;1478;-73
2022/08/27 02:23:56;;;;;;;;;;;;;;;;;;5045980;28;1550;-72
2022/08/27 02:26:22;;;;;;;;;;;;;;;;;;5043316;28;1283;-72
2022/08/27 02:28:47;;;;;;;;;;;;;;;;;;5043690;28;1913;-72
2022/08/27 02:31:13;;;;;;;;;;;;;;;;;;5048116;28;1539;-71
2022/08/27 02:33:38;;;;;;;;;;;;;;;;;;5043504;28;1601;-72
2022/08/27 02:36:03;;;;;;;;;;;;;;;;;;5041916;28;1597;-71
2022/08/27 02:38:28;;;;;;;;;;;;;;;;;;5043858;28;1250;-72
2022/08/27 02:40:54;;;;;;;;;;;;;;;;;;5043480;28;884;-72
2022/08/27 02:43:19;;;;;;;;;;;;;;;;;;5043209;28;808;-72
2022/08/27 02:45:44;;;;;;;;;;;;;;;;;;5045867;28;1717;-72
2022/08/27 02:48:09;;;;;;;;;;;;;;;;;;5043243;28;1894;-71
2022/08/27 02:50:35;;;;;;;;;;;;;;;;;;5043208;28;1563;-71
2022/08/27 02:53:01;;;;;;;;;;;;;;;;;;5043284;28;815;-71
2022/08/27 02:55:27;;;;;;;;;;;;;;;;;;5041821;28;1770;-71
2022/08/27 02:57:52;;;;;;;;;;;;;;;;;;5043535;28;1542;-72
2022/08/27 03:00:18;;;;;;;;;;;;;;;;;;5042775;28;1317;-70
2022/08/27 03:02:44;;;;;;;;;;;;;;;;;;5047623;28;1221;-70
2022/08/27 03:05:10;;;;;;;;;;;;;;;;;;5040736;28;1346;-70
2022/08/27 03:07:36;;;;;;;;;;;;;;;;;;5042341;28;1893;-70
2022/08/27 03:10:01;;;;;;;;;;;;;;;;;;5043206;28;811;-70
2022/08/27 03:12:27;;;;;;;;;;;;;;;;;;5042902;28;823;-72
2022/08/27 03:14:52;;;;;;;;;;;;;;;;;;5042729;28;1200;-72
2022/08/27 03:20:02;;;;;;;;;;;;;;;;;;5049862;28;1682;-72
2022/08/27 03:22:28;;;;;;;;;;;;;;;;;;5042907;28;1197;-73
2022/08/27 03:24:54;;;;;;;;;;;;;;;;;;5042513;28;1192;-71
2022/08/27 03:27:19;;;;;;;;;;;;;;;;;;5042606;28;1897;-71
2022/08/27 03:29:44;;;;;;;;;;;;;;;;;;5042716;28;811;-72
2022/08/27 03:32:09;;;;;;;;;;;;;;;;;;5023979;28;1460;-72
2022/08/27 03:34:35;;;;;;;;;;;;;;;;;;5039858;28;1792;-73
2022/08/27 03:37:00;;;;;;;;;;;;;;;;;;5042576;28;1183;-73
2022/08/27 03:39:26;;;;;;;;;;;;;;;;;;5042610;28;954;-73
2022/08/27 03:41:51;;;;;;;;;;;;;;;;;;5042295;28;1561;-72
2022/08/27 03:44:16;;;;;;;;;;;;;;;;;;5041634;28;1661;-71
2022/08/27 03:46:41;;;;;;;;;;;;;;;;;;5046281;28;1254;-71
2022/08/27 03:49:06;;;;;;;;;;;;;;;;;;5043024;28;1906;-71
2022/08/27 03:51:32;;;;;;;;;;;;;;;;;;5041394;28;1295;-71
2022/08/27 03:53:58;;;;;;;;;;;;;;;;;;5042394;28;1144;-72
2022/08/27 03:56:23;;;;;;;;;;;;;;;;;;5042055;28;1262;-73
2022/08/27 03:58:48;;;;;;;;;;;;;;;;;;5042178;28;998;-73
2022/08/27 04:01:14;;;;;;;;;;;;;;;;;;5048168;28;1727;-74
2022/08/27 04:03:39;;;;;;;;;;;;;;;;;;5041890;28;1466;-74
2022/08/27 04:06:04;;;;;;;;;;;;;;;;;;5040733;28;1768;-74
2022/08/27 04:08:30;;;;;;;;;;;;;;;;;;5045286;28;1893;-72
2022/08/27 04:10:55;;;;;;;;;;;;;;;;;;5049701;28;1943;-70
2022/08/27 04:13:22;;;;;;;;;;;;;;;;;;5050632;28;1530;-70
2022/08/27 04:15:48;;;;;;;;;;;;;;;;;;5050570;28;1304;-71
2022/08/27 04:18:17;;;;;;;;;;;;;;;;;;5048454;28;1357;-70
2022/08/27 04:20:43;;;;;;;;;;;;;;;;;;5054295;28;1312;-71
2022/08/27 04:23:08;;;;;;;;;;;;;;;;;;5048831;28;1270;-71
2022/08/27 04:25:33;;;;;;;;;;;;;;;;;;5052145;28;1565;-71
2022/08/27 04:27:59;;;;;;;;;;;;;;;;;;5053101;28;1901;-70
2022/08/27 04:30:24;;;;;;;;;;;;;;;;;;5048230;28;1341;-71
2022/08/27 04:32:49;;;;;;;;;;;;;;;;;;5047180;28;1259;-70
2022/08/27 04:35:15;;;;;;;;;;;;;;;;;;5048672;28;1385;-70
2022/08/27 04:37:40;;;;;;;;;;;;;;;;;;5047355;28;1314;-70
2022/08/27 04:40:05;;;;;;;;;;;;;;;;;;5050270;28;1235;-70
2022/08/27 04:42:30;;;;;;;;;;;;;;;;;;5046375;28;1313;-70
2022/08/27 04:44:56;;;;;;;;;;;;;;;;;;5050933;28;1357;-70
2022/08/27 04:47:22;;;;;;;;;;;;;;;;;;5047385;28;1961;-72
2022/08/27 04:49:47;;;;;;;;;;;;;;;;;;5047149;28;1262;-72
2022/08/27 04:52:12;;;;;;;;;;;;;;;;;;5044767;28;1700;-73
2022/08/27 04:54:37;;;;;;;;;;;;;;;;;;5047691;28;1302;-72
2022/08/27 04:57:04;;;;;;;;;;;;;;;;;;5050590;28;1255;-72
2022/08/27 04:59:30;;;;;;;;;;;;;;;;;;5047531;28;1336;-72
2022/08/27 05:01:55;;;;;;;;;;;;;;;;;;5048797;28;1327;-72
2022/08/27 05:04:20;;;;;;;;;;;;;;;;;;5040524;28;1423;-72
2022/08/27 05:06:47;;;;;;;;;;;;;;;;;;5041890;28;1341;-72
2022/08/27 05:09:13;;;;;;;;;;;;;;;;;;5041186;28;1955;-72
2022/08/27 05:11:38;;;;;;;;;;;;;;;;;;5041342;28;799;-72
2022/08/27 05:14:05;;;;;;;;;;;;;;;;;;5022633;28;1610;-72
2022/08/27 05:16:30;;;;;;;;;;;;;;;;;;5046350;28;1286;-72
2022/08/27 05:18:57;;;;;;;;;;;;;;;;;;5039802;28;1618;-72
2022/08/27 05:21:24;;;;;;;;;;;;;;;;;;5041273;28;1165;-72
2022/08/27 05:23:50;;;;;;;;;;;;;;;;;;5041038;28;1636;-71
2022/08/27 05:26:15;;;;;;;;;;;;;;;;;;5040468;28;1597;-71
2022/08/27 05:28:40;;;;;;;;;;;;;;;;;;5040107;28;1944;-72
2022/08/27 05:31:08;;;;;;;;;;;;;;;;;;5049662;28;1229;-76
2022/08/27 05:33:33;;;;;;;;;;;;;;;;;;5042575;28;1614;-77
2022/08/27 05:35:59;;;;;;;;;;;;;;;;;;5049822;28;1625;-73
2022/08/27 05:38:25;;;;;;;;;;;;;;;;;;5045838;28;1666;-74
2022/08/27 05:41:00;;;;;;;;;;;;;;;;;;5038438;28;1586;-74
2022/08/27 05:43:25;;;;;;;;;;;;;;;;;;5037486;28;1294;-74
2022/08/27 05:45:51;;;;;;;;;;;;;;;;;;5043742;28;1502;-74
2022/08/27 05:48:16;;;;;;;;;;;;;;;;;;5042976;28;1943;-75
2022/08/27 05:50:42;;;;;;;;;;;;;;;;;;5044378;28;775;-75
2022/08/27 05:53:08;;;;;;;;;;;;;;;;;;5044137;28;1183;-75
2022/08/27 05:55:38;;;;;;;;;;;;;;;;;;5043643;28;1578;-75
2022/08/27 05:58:03;;;;;;;;;;;;;;;;;;5044231;28;810;-74
2022/08/27 06:03:12;;;;;;;;;;;;;;;;;;5043946;28;1574;-74
2022/08/27 06:05:37;;;;;;;;;;;;;;;;;;5042801;28;1212;-75
2022/08/27 06:08:03;;;;;;;;;;;;;;;;;;5043442;28;1951;-75
2022/08/27 06:10:28;;;;;;;;;;;;;;;;;;5033546;28;1236;-75
2022/08/27 06:12:53;;;;;;;;;;;;;;;;;;5044030;28;878;-75
2022/08/27 06:15:18;;;;;;;;;;;;;;;;;;5043547;28;1328;-75
2022/08/27 06:17:43;;;;;;;;;;;;;;;;;;5043685;28;1597;-75
2022/08/27 06:20:09;;;;;;;;;;;;;;;;;;5043652;28;1507;-75
2022/08/27 06:22:34;;;;;;;;;;;;;;;;;;5043040;28;812;-75
2022/08/27 06:25:00;;;;;;;;;;;;;;;;;;5043623;28;1188;-75
2022/08/27 06:27:25;;;;;;;;;;;;;;;;;;5043336;28;1899;-76
2022/08/27 06:29:50;;;;;;;;;;;;;;;;;;5047600;28;1249;-74
2022/08/27 06:32:15;;;;;;;;;;;;;;;;;;5047403;28;1285;-77
2022/08/27 06:34:41;;;;;;;;;;;;;;;;;;5042037;28;1353;-74
2022/08/27 06:37:06;;;;;;;;;;;;;;;;;;5042858;28;1197;-75
2022/08/27 06:39:31;;;;;;;;;;;;;;;;;;5042954;28;1617;-73
2022/08/27 06:41:57;;;;;;;;;;;;;;;;;;5043030;28;1656;-75
2022/08/27 06:44:23;;;;;;;;;;;;;;;;;;5042330;28;1555;-75
2022/08/27 06:46:48;;;;;;;;;;;;;;;;;;5048187;28;1609;-76
2022/08/27 06:49:13;;;;;;;;;;;;;;;;;;5025903;28;1902;-75
2022/08/27 06:51:39;;;;;;;;;;;;;;;;;;5048815;28;1324;-76
2022/08/27 06:54:08;;;;;;;;;;;;;;;;;;5041636;28;1571;-77
2022/08/27 06:56:34;;;;;;;;;;;;;;;;;;5042090;28;1270;-76
2022/08/27 06:59:00;;;;;;;;;;;;;;;;;;5043297;28;779;-76
2022/08/27 07:01:27;;;;;;;;;;;;;;;;;;5043364;28;2277;-77
2022/08/27 07:03:57;;;;;;;;;;;;;;;;;;5050754;28;1609;-77
2022/08/27 07:06:23;;;;;;;;;;;;;;;;;;5055579;28;1691;-77
2022/08/27 07:08:48;;;;;;;;;;;;;;;;;;5063063;28;1973;-76
2022/08/27 07:11:14;;;;;;;;;;;;;;;;;;5048799;28;1577;-77
2022/08/27 07:13:40;;;;;;;;;;;;;;;;;;5042306;28;834;-77
2022/08/27 07:16:07;;;;;;;;;;;;;;;;;;5042777;28;1282;-77
2022/08/27 07:18:32;;;;;;;;;;;;;;;;;;5042617;28;1630;-77
2022/08/27 07:20:58;;;;;;;;;;;;;;;;;;5025229;28;1330;-77
2022/08/27 07:23:23;;;;;;;;;;;;;;;;;;5023810;28;1546;-77
2022/08/27 07:25:48;;;;;;;;;;;;;;;;;;5034145;28;1339;-76
2022/08/27 07:28:13;;;;;;;;;;;;;;;;;;5042833;28;1965;-77
2022/08/27 07:30:39;;;;;;;;;;;;;;;;;;5041993;28;776;-77
2022/08/27 07:33:04;;;;;;;;;;;;;;;;;;5042679;28;1649;-77
2022/08/27 07:35:30;;;;;;;;;;;;;;;;;;5042393;28;1200;-77
2022/08/27 07:37:55;;;;;;;;;;;;;;;;;;5042395;28;1514;-77
2022/08/27 07:40:21;;;;;;;;;;;;;;;;;;5042123;28;1696;-77
2022/08/27 07:45:30;;;;;;;;;;;;;;;;;;5039244;28;1472;-78
2022/08/27 07:47:55;;;;;;;;;;;;;;;;;;5041438;28;1898;-77
2022/08/27 07:50:22;;;;;;;;;;;;;;;;;;5042608;28;1651;-77
2022/08/27 07:52:48;;;;;;;;;;;;;;;;;;5041446;28;862;-78
2022/08/27 07:55:13;;;;;;;;;;;;;;;;;;5024437;28;1204;-78
2022/08/27 07:57:38;;;;;;;;;;;;;;;;;;5041010;28;1492;-78
2022/08/27 08:00:07;;;;;;;;;;;;;;;;;;5041152;28;1864;-77
2022/08/27 08:02:33;;;;;;;;;;;;;;;;;;5036647;28;1546;-78
2022/08/27 08:04:59;;;;;;;;;;;;;;;;;;5033926;28;1609;-77
2022/08/27 08:07:24;;;;;;;;;;;;;;;;;;5041295;28;1906;-77
2022/08/27 08:09:49;;;;;;;;;;;;;;;;;;5041899;28;1608;-77
2022/08/27 08:12:14;;;;;;;;;;;;;;;;;;5041873;28;1535;-78
2022/08/27 08:14:40;;;;;;;;;;;;;;;;;;5040594;28;1519;-78
2022/08/27 08:17:05;;;;;;;;;;;;;;;;;;5033415;28;1570;-78
2022/08/27 08:19:32;;;;;;;;;;;;;;;;;;5041262;28;1778;-78
2022/08/27 08:21:57;;;;;;;;;;;;;;;;;;5039728;28;1695;-78
2022/08/27 08:24:22;;;;;;;;;;;;;;;;;;5039077;28;1614;-78
2022/08/27 08:26:48;;;;;;;;;;;;;;;;;;5037441;28;1578;-78
2022/08/27 08:29:13;;;;;;;;;;;;;;;;;;5036196;28;1975;-76
2022/08/27 08:31:42;;;;;;;;;;;;;;;;;;5039652;28;1396;-74
2022/08/27 08:34:07;;;;;;;;;;;;;;;;;;5034392;28;1445;-74
2022/08/27 08:36:32;;;;;;;;;;;;;;;;;;5033460;28;1373;-76
2022/08/27 08:38:58;;;;;;;;;;;;;;;;;;5034427;28;860;-76
2022/08/27 08:41:23;;;;;;;;;;;;;;;;;;5021742;28;847;-75
2022/08/27 08:43:50;;;;;;;;;;;;;;;;;;5026559;28;1550;-77
2022/08/27 08:46:21;;;;;;;;;;;;;;;;;;5040941;28;1296;-76
2022/08/27 08:48:47;;;;;;;;;;;;;;;;;;5041010;28;1898;-74
2022/08/27 08:51:17;;;;;;;;;;;;;;;;;;5040957;28;1607;-75
2022/08/27 08:53:46;;;;;;;;;;;;;;;;;;5040929;28;1716;-74
2022/08/27 08:56:16;;;;;;;;;;;;;;;;;;5040268;28;1431;-75
2022/08/27 08:58:46;;;;;;;;;;;;;;;;;;5041261;28;901;-76
2022/08/27 09:01:13;;;;;;;;;;;;;;;;;;5037434;28;1649;-75
2022/08/27 09:03:40;;;;;;;;;;;;;;;;;;5032262;28;1854;-76
2022/08/27 09:06:07;;;;;;;;;;;;;;;;;;5036131;28;1870;-76
2022/08/27 09:08:36;;;;;;;;;;;;;;;;;;5039329;28;1949;-75
2022/08/27 09:11:14;;;;;;;;;;;;;;;;;;5041270;28;851;-76
2022/08/27 09:13:42;;;;;;;;;;;;;;;;;;5028287;28;1029;-75
2022/08/27 09:16:08;;;;;;;;;;;;;;;;;;5020875;28;1181;-74
2022/08/27 09:18:37;;;;;;;;;;;;;;;;;;5035605;28;1653;-74
2022/08/27 09:21:09;;;;;;;;;;;;;;;;;;5023110;28;1627;-74
2022/08/27 09:23:40;;;;;;;;;;;;;;;;;;5041147;28;906;-74
2022/08/27 09:26:15;;;;;;;;;;;;;;;;;;5023013;28;1193;-74
2022/08/27 09:31:24;;;;;;;;;;;;;;;;;;5040669;28;749;-74
2022/08/27 09:33:50;;;;;;;;;;;;;;;;;;5040569;28;1629;-74
2022/08/27 09:36:16;;;;;;;;;;;;;;;;;;5040642;28;1334;-74
2022/08/27 09:38:50;;;;;;;;;;;;;;;;;;5040532;28;889;-74
2022/08/27 09:41:22;;;;;;;;;;;;;;;;;;5046281;28;843;-75
2022/08/27 09:43:55;;;;;;;;;;;;;;;;;;5048602;28;1613;-74
2022/08/27 09:46:21;;;;;;;;;;;;;;;;;;5042673;28;1173;-75
2022/08/27 09:48:47;;;;;;;;;;;;;;;;;;5039925;28;1902;-75
2022/08/27 09:51:15;;;;;;;;;;;;;;;;;;5040640;28;807;-75
2022/08/27 09:53:40;;;;;;;;;;;;;;;;;;5040899;28;1060;-75
2022/08/27 09:56:06;;;;;;;;;;;;;;;;;;5047482;28;1180;-75
2022/08/27 09:58:44;;;;;;;;;;;;;;;;;;5049209;28;910;-76
2022/08/27 10:01:23;;;;;;;;;;;;;;;;;;5043026;28;960;-76
2022/08/27 10:03:48;;;;;;;;;;;;;;;;;;5039465;28;1606;-76
2022/08/27 10:06:24;;;;;;;;;;;;;;;;;;5060157;28;1271;-77
2022/08/27 10:08:51;;;;;;;;;;;;;;;;;;5069026;28;1883;-75
2022/08/27 10:11:28;;;;;;;;;;;;;;;;;;5046725;28;1507;-76
2022/08/27 10:14:06;;;;;;;;;;;;;;;;;;5060304;28;795;-75
2022/08/27 10:16:46;;;;;;;;;;;;;;;;;;5060437;28;1652;-75
2022/08/27 10:19:30;;;;;;;;;;;;;;;;;;5041919;28;1105;-75
2022/08/27 10:22:04;;;;;;;;;;;;;;;;;;5043141;28;1368;-75
2022/08/27 10:24:29;;;;;;;;;;;;;;;;;;5025560;28;1342;-75
2022/08/27 10:27:00;;;;;;;;;;;;;;;;;;5043688;28;913;-76
2022/08/27 10:29:38;;;;;;;;;;;;;;;;;;5043451;28;1966;-74
2022/08/27 10:32:24;;;;;;;;;;;;;;;;;;5023782;28;1514;-75
2022/08/27 10:35:02;;;;;;;;;;;;;;;;;;5040993;28;1186;-75
2022/08/27 10:37:45;;;;;;;;;;;;;;;;;;5040758;28;930;-75
2022/08/27 10:40:21;;;;;;;;;;;;;;;;;;5041060;28;911;-75
2022/08/27 10:42:46;;;;;;;;;;;;;;;;;;5041540;28;799;-75
2022/08/27 10:45:23;;;;;;;;;;;;;;;;;;5041120;28;1208;-75
2022/08/27 10:48:05;;;;;;;;;;;;;;;;;;5040571;28;1893;-74
2022/08/27 10:50:41;;;;;;;;;;;;;;;;;;5033931;28;1129;-70
2022/08/27 10:53:13;;;;;;;;;;;;;;;;;;5041249;28;918;-75
2022/08/27 10:55:50;;;;;;;;;;;;;;;;;;5028416;28;1339;-75
2022/08/27 10:58:22;;;;;;;;;;;;;;;;;;5021277;28;858;-76
2022/08/27 11:00:52;;;;;;;;;;;;;;;;;;5029433;28;1451;-74
2022/08/27 11:03:34;;;;;;;;;;;;;;;;;;5040647;28;1589;-75
2022/08/27 11:06:02;;;;;;;;;;;;;;;;;;5040459;28;1578;-75
2022/08/27 11:08:49;;;;;;;;;;;;;;;;;;5039401;28;1945;-76
2022/08/27 11:11:35;;;;;;;;;;;;;;;;;;5040473;28;966;-75
2022/08/27 11:14:01;;;;;;;;;;;;;;;;;;5028643;28;1566;-75
2022/08/27 11:16:34;;;;;;;;;;;;;;;;;;5030880;28;1681;-73
2022/08/27 11:19:05;;;;;;;;;;;;;;;;;;5034083;28;1744;-72
2022/08/27 11:21:39;;;;;;;;;;;;;;;;;;5033728;28;1554;-72
2022/08/27 11:24:20;;;;;;;;;;;;;;;;;;5032112;28;1613;-71
2022/08/27 11:26:46;;;;;;;;;;;;;;;;;;5035979;28;1809;-71
2022/08/27 11:29:20;;;;;;;;;;;;;;;;;;5041774;28;1894;-70
2022/08/27 11:31:55;;;;;;;;;;;;;;;;;;5042069;28;1640;-70
2022/08/27 11:34:20;;;;;;;;;;;;;;;;;;5028188;28;1499;-70
2022/08/27 11:37:01;;;;;;;;;;;;;;;;;;5035568;28;1574;-70
2022/08/27 11:39:35;;;;;;;;;;;;;;;;;;5036232;28;1484;-70
2022/08/27 11:42:06;;;;;;;;;;;;;;;;;;5037800;28;1535;-70
2022/08/27 11:44:38;;;;;;;;;;;;;;;;;;5036249;28;1621;-70
2022/08/27 11:47:23;;;;;;;;;;;;;;;;;;5033848;28;1476;-70
2022/08/27 11:49:58;;;;;;;;;;;;;;;;;;5038116;28;1761;-71
2022/08/27 11:52:23;;;;;;;;;;;;;;;;;;5042194;28;1339;-72
2022/08/27 11:54:51;;;;;;;;;;;;;;;;;;5048365;28;1328;-72
2022/08/27 11:57:33;;;;;;;;;;;;;;;;;;5037308;28;1760;-72
2022/08/27 12:00:18;;;;;;;;;;;;;;;;;;5033563;28;1692;-71
2022/08/27 12:02:43;;;;;;;;;;;;;;;;;;5036593;28;1797;-71
2022/08/27 12:05:29;;;;;;;;;;;;;;;;;;5036766;28;1554;-72
2022/08/27 12:07:54;;;;;;;;;;;;;;;;;;5022916;28;1930;-71
2022/08/27 12:10:19;;;;;;;;;;;;;;;;;;5036372;28;1906;-71
2022/08/27 12:12:44;;;;;;;;;;;;;;;;;;5035975;28;1633;-72
2022/08/27 12:15:21;;;;;;;;;;;;;;;;;;5032363;28;1603;-70
2022/08/27 12:17:52;;;;;;;;;;;;;;;;;;5033272;28;1447;-71
2022/08/27 12:20:22;;;;;;;;;;;;;;;;;;5037263;28;1511;-71
2022/08/27 12:25:32;;;;;;;;;;;;;;;;;;5036218;28;1861;-71
2022/08/27 12:28:01;;;;;;;;;;;;;;;;;;5038706;28;1979;-71
2022/08/27 12:30:27;;;;;;;;;;;;;;;;;;5035053;28;1501;-72
2022/08/27 12:32:53;;;;;;;;;;;;;;;;;;5036465;28;1811;-72
2022/08/27 12:35:21;;;;;;;;;;;;;;;;;;5036437;28;1462;-73
2022/08/27 12:37:50;;;;;;;;;;;;;;;;;;5036088;28;1688;-71
2022/08/27 12:40:23;;;;;;;;;;;;;;;;;;5033030;28;1780;-72
2022/08/27 12:42:49;;;;;;;;;;;;;;;;;;5036541;28;1496;-72
2022/08/27 12:45:23;;;;;;;;;;;;;;;;;;5034828;28;1787;-72
2022/08/27 12:47:48;;;;;;;;;;;;;;;;;;5033298;28;1953;-71
2022/08/27 12:50:19;;;;;;;;;;;;;;;;;;5032167;28;1435;-72
2022/08/27 12:52:44;;;;;;;;;;;;;;;;;;5033107;28;1590;-72
2022/08/27 12:55:24;;;;;;;;;;;;;;;;;;5032057;28;1474;-71
2022/08/27 12:57:49;;;;;;;;;;;;;;;;;;5032944;28;1544;-73
2022/08/27 13:00:19;;;;;;;;;;;;;;;;;;5035813;28;1457;-73
2022/08/27 13:03:00;;;;;;;;;;;;;;;;;;5032026;28;1466;-71
2022/08/27 13:05:25;;;;;;;;;;;;;;;;;;5034513;28;1780;-72
2022/08/27 13:07:51;;;;;;;;;;;;;;;;;;5035992;28;1953;-73
2022/08/27 13:10:19;;;;;;;;;;;;;;;;;;5034118;28;1990;-73
2022/08/27 13:12:45;;;;;;;;;;;;;;;;;;5032981;28;1648;-73
2022/08/27 13:15:12;;;;;;;;;;;;;;;;;;5033744;28;1699;-74
2022/08/27 13:17:41;;;;;;;;;;;;;;;;;;5036907;28;1642;-73
2022/08/27 13:20:23;;;;;;;;;;;;;;;;;;5035280;28;1627;-74
2022/08/27 13:22:49;;;;;;;;;;;;;;;;;;5038103;28;1741;-73
2022/08/27 13:25:22;;;;;;;;;;;;;;;;;;5017018;28;1915;-74
2022/08/27 13:27:51;;;;;;;;;;;;;;;;;;5037258;28;1902;-73
2022/08/27 13:30:17;;;;;;;;;;;;;;;;;;5035802;28;1989;-73
2022/08/27 13:32:43;;;;;;;;;;;;;;;;;;5033116;28;1552;-74
2022/08/27 13:35:09;;;;;;;;;;;;;;;;;;5034590;28;1651;-75
2022/08/27 13:37:34;;;;;;;;;;;;;;;;;;5034651;28;1691;-74
2022/08/27 13:39:59;;;;;;;;;;;;;;;;;;5033326;28;1835;-74
2022/08/27 13:42:25;;;;;;;;;;;;;;;;;;5035260;28;1564;-74
2022/08/27 13:44:52;;;;;;;;;;;;;;;;;;5035371;28;1705;-74
2022/08/27 13:47:24;;;;;;;;;;;;;;;;;;5017282;28;1787;-74
2022/08/27 13:49:50;;;;;;;;;;;;;;;;;;5040722;28;1177;-74
2022/08/27 13:52:32;;;;;;;;;;;;;;;;;;5022300;28;1559;-74
2022/08/27 13:55:04;;;;;;;;;;;;;;;;;;5043884;28;1172;-74
2022/08/27 13:57:38;;;;;;;;;;;;;;;;;;5044282;28;798;-74
2022/08/27 14:00:13;;;;;;;;;;;;;;;;;;5043969;28;910;-74
2022/08/27 14:02:39;;;;;;;;;;;;;;;;;;5043215;28;1460;-73
2022/08/27 14:05:10;;;;;;;;;;;;;;;;;;5043591;28;1290;-72
2022/08/27 14:07:55;;;;;;;;;;;;;;;;;;5043947;28;1961;-72
2022/08/27 14:10:31;;;;;;;;;;;;;;;;;;5044008;28;1044;-72
2022/08/27 14:13:02;;;;;;;;;;;;;;;;;;5043909;28;902;-71
2022/08/27 14:15:35;;;;;;;;;;;;;;;;;;5043683;28;1270;-71
2022/08/27 14:18:02;;;;;;;;;;;;;;;;;;5043300;28;1530;-71
2022/08/27 14:20:27;;;;;;;;;;;;;;;;;;5036099;28;1500;-71
2022/08/27 14:22:52;;;;;;;;;;;;;;;;;;5043536;28;1447;-71
2022/08/27 14:25:19;;;;;;;;;;;;;;;;;;5043600;28;1259;-71
2022/08/27 14:27:44;;;;;;;;;;;;;;;;;;5043463;28;1965;-71
2022/08/27 14:30:11;;;;;;;;;;;;;;;;;;5043785;28;889;-71
2022/08/27 14:32:37;;;;;;;;;;;;;;;;;;5043319;28;1565;-71
2022/08/27 14:35:02;;;;;;;;;;;;;;;;;;5043058;28;1573;-71
2022/08/27 14:37:28;;;;;;;;;;;;;;;;;;5043291;28;830;-71
2022/08/27 14:39:53;;;;;;;;;;;;;;;;;;5043004;28;1542;-71
2022/08/27 14:42:18;;;;;;;;;;;;;;;;;;5043285;28;1551;-71
2022/08/27 14:44:44;;;;;;;;;;;;;;;;;;5043132;28;1184;-72
2022/08/27 14:47:10;;;;;;;;;;;;;;;;;;5043432;28;1470;-71
2022/08/27 14:49:37;;;;;;;;;;;;;;;;;;5043338;28;1898;-71
2022/08/27 14:52:04;;;;;;;;;;;;;;;;;;5042835;28;1089;-71
2022/08/27 14:54:29;;;;;;;;;;;;;;;;;;5042638;28;1291;-71
2022/08/27 14:56:54;;;;;;;;;;;;;;;;;;5043058;28;890;-71
2022/08/27 14:59:20;;;;;;;;;;;;;;;;;;5043272;28;799;-71
2022/08/27 15:01:46;;;;;;;;;;;;;;;;;;5033883;28;1637;-71
2022/08/27 15:04:11;;;;;;;;;;;;;;;;;;5042670;28;1449;-71
2022/08/27 15:06:36;;;;;;;;;;;;;;;;;;5042681;28;1581;-71
2022/08/27 15:09:01;;;;;;;;;;;;;;;;;;5041670;28;1902;-71
2022/08/27 15:11:28;;;;;;;;;;;;;;;;;;5040576;28;1874;-71
2022/08/27 15:13:54;;;;;;;;;;;;;;;;;;5043104;28;803;-71
2022/08/27 15:16:31;;;;;;;;;;;;;;;;;;5042830;28;1188;-71
2022/08/27 15:18:56;;;;;;;;;;;;;;;;;;5042619;28;1617;-71
2022/08/27 15:21:22;;;;;;;;;;;;;;;;;;5042995;28;902;-71
2022/08/27 15:23:48;;;;;;;;;;;;;;;;;;5043055;28;996;-73
2022/08/27 15:26:13;;;;;;;;;;;;;;;;;;5041876;28;1313;-72
2022/08/27 15:28:38;;;;;;;;;;;;;;;;;;5042849;28;1973;-72
2022/08/27 15:31:03;;;;;;;;;;;;;;;;;;5042560;28;902;-72
2022/08/27 15:33:29;;;;;;;;;;;;;;;;;;5034016;28;1526;-73
2022/08/27 15:35:54;;;;;;;;;;;;;;;;;;5042235;28;1243;-73
2022/08/27 15:38:20;;;;;;;;;;;;;;;;;;5042795;28;918;-72
2022/08/27 15:40:45;;;;;;;;;;;;;;;;;;5042158;28;1459;-72
2022/08/27 15:43:10;;;;;;;;;;;;;;;;;;5041721;28;1135;-72
2022/08/27 15:45:36;;;;;;;;;;;;;;;;;;5042428;28;1200;-72
2022/08/27 15:48:01;;;;;;;;;;;;;;;;;;5041066;28;2243;-72
2022/08/27 15:50:27;;;;;;;;;;;;;;;;;;5042631;28;1167;-72
2022/08/27 15:52:55;;;;;;;;;;;;;;;;;;5042093;28;997;-73
2022/08/27 15:55:22;;;;;;;;;;;;;;;;;;5041577;28;1537;-72
2022/08/27 15:57:48;;;;;;;;;;;;;;;;;;5041870;28;1546;-72
2022/08/27 16:00:15;;;;;;;;;;;;;;;;;;5041653;28;863;-72
2022/08/27 16:02:40;;;;;;;;;;;;;;;;;;5042197;28;1571;-72
2022/08/27 16:05:06;;;;;;;;;;;;;;;;;;5041842;28;1192;-72
2022/08/27 16:07:31;;;;;;;;;;;;;;;;;;5042271;28;1902;-73
2022/08/27 16:09:56;;;;;;;;;;;;;;;;;;5033699;28;1514;-72
2022/08/27 16:12:21;;;;;;;;;;;;;;;;;;5041918;28;1149;-72
2022/08/27 16:14:47;;;;;;;;;;;;;;;;;;5040888;28;1169;-73
2022/08/27 16:17:12;;;;;;;;;;;;;;;;;;5044045;28;1546;-74
2022/08/27 16:19:38;;;;;;;;;;;;;;;;;;5040365;28;1202;-71
2022/08/27 16:22:05;;;;;;;;;;;;;;;;;;5041723;28;1001;-72
2022/08/27 16:24:30;;;;;;;;;;;;;;;;;;5041431;28;1502;-72
2022/08/27 16:26:56;;;;;;;;;;;;;;;;;;5041365;28;1424;-72
2022/08/27 16:29:21;;;;;;;;;;;;;;;;;;5041880;28;1891;-72
2022/08/27 16:31:46;;;;;;;;;;;;;;;;;;5041551;28;1546;-72
2022/08/27 16:34:15;;;;;;;;;;;;;;;;;;5040989;28;1735;-73
2022/08/27 16:36:41;;;;;;;;;;;;;;;;;;5041510;28;1318;-73
2022/08/27 16:39:06;;;;;;;;;;;;;;;;;;5041468;28;965;-73
2022/08/27 16:41:31;;;;;;;;;;;;;;;;;;5033206;28;1671;-72
2022/08/27 16:43:57;;;;;;;;;;;;;;;;;;5041461;28;1032;-73
2022/08/27 16:46:22;;;;;;;;;;;;;;;;;;5041210;28;1432;-72
2022/08/27 16:51:34;;;;;;;;;;;;;;;;;;5041002;28;697;-73
2022/08/27 16:54:00;;;;;;;;;;;;;;;;;;5058293;28;1112;-73
2022/08/27 16:56:25;;;;;;;;;;;;;;;;;;5060899;28;1274;-73
2022/08/27 16:58:51;;;;;;;;;;;;;;;;;;5047226;28;1616;-73
2022/08/27 17:01:18;;;;;;;;;;;;;;;;;;5040778;28;1581;-73
2022/08/27 17:03:48;;;;;;;;;;;;;;;;;;5041111;28;1739;-73
2022/08/27 17:06:14;;;;;;;;;;;;;;;;;;5040822;28;1354;-73
2022/08/27 17:08:44;;;;;;;;;;;;;;;;;;5040026;28;1902;-72
2022/08/27 17:11:09;;;;;;;;;;;;;;;;;;5034448;28;1921;-73
2022/08/27 17:13:35;;;;;;;;;;;;;;;;;;5041938;28;1350;-73
2022/08/27 17:16:00;;;;;;;;;;;;;;;;;;5041827;28;1404;-73
2022/08/27 17:18:26;;;;;;;;;;;;;;;;;;5040006;28;1283;-72
2022/08/27 17:20:51;;;;;;;;;;;;;;;;;;5022535;28;1417;-73
2022/08/27 17:23:22;;;;;;;;;;;;;;;;;;5038411;28;1275;-73
2022/08/27 17:25:47;;;;;;;;;;;;;;;;;;5037960;28;1346;-72